Time;durP1;ratioP1;P1;durP2;ratioP2;P2;SDS_P1;SDS_P2;PMS_P1;PMS_P2;Temp;Humidity;BMP_temperature;BMP_pressure;BME280_temperature;BME280_humidity;BME280_pressure;Samples;Min_cycle;Max_cycle;Signal;HPM_P1;HPM_P2
2023/10/12 00:02:09;;;;;;;0.20;0.20;;;;;;;;;;5120904;27;20876;-75
2023/10/12 00:04:43;;;;;;;0.10;0.10;;;;;;;;;;5126490;27;20052;-75
2023/10/12 00:07:15;;;;;;;0.17;0.17;;;;;;;;;;5119165;27;20514;-76
2023/10/12 00:09:47;;;;;;;0.45;0.32;;;;;;;;;;5127381;27;20059;-75
2023/10/12 00:12:23;;;;;;;0.20;0.20;;;;;;;;;;5103368;27;20753;-76
2023/10/12 00:14:54;;;;;;;0.55;0.38;;;;;;;;;;5121984;27;20146;-75
2023/10/12 00:17:20;;;;;;;;;;;;;;;;;;5127494;27;20054;-76
2023/10/12 00:19:47;;;;;;;0.10;0.10;;;;;;;;;;5126215;27;47498;-75
2023/10/12 00:22:15;;;;;;;0.28;0.28;;;;;;;;;;5127521;27;20100;-75
2023/10/12 00:24:42;;;;;;;0.73;0.70;;;;;;;;;;5125584;27;20083;-75
2023/10/12 00:27:09;;;;;;;0.20;0.20;;;;;;;;;;5123982;27;20131;-75
2023/10/12 00:29:39;;;;;;;0.70;0.55;;;;;;;;;;5129212;27;20391;-75
2023/10/12 00:32:09;;;;;;;0.10;0.10;;;;;;;;;;5119976;27;20414;-75
2023/10/12 00:34:45;;;;;;;0.13;0.13;;;;;;;;;;5120737;27;20051;-75
2023/10/12 00:37:13;;;;;;;0.10;0.10;;;;;;;;;;5127517;27;20509;-75
2023/10/12 00:40:22;;;;;;;0.32;0.28;;;;;;;;;;5102681;27;20055;-76
2023/10/12 00:42:29;;;;;;;0.10;0.10;;;;;;;;;;5135866;22;20050;-74
2023/10/12 00:44:55;;;;;;;0.43;0.43;;;;;;;;;;5112035;27;20064;-77
2023/10/12 00:50:11;;;;;;;0.30;0.30;;;;;;;;;;5124801;27;20067;-73
2023/10/12 00:52:52;;;;;;;0.52;0.45;;;;;;;;;;5128935;27;20082;-77
2023/10/12 00:55:21;;;;;;;0.30;0.30;;;;;;;;;;5128022;27;20044;-74
2023/10/12 00:57:50;;;;;;;0.25;0.25;;;;;;;;;;5107589;27;20502;-73
2023/10/12 01:00:17;;;;;;;0.25;0.25;;;;;;;;;;5128779;27;20078;-75
2023/10/12 01:03:06;;;;;;;0.10;0.10;;;;;;;;;;5125718;27;20052;-73
2023/10/12 01:05:36;;;;;;;0.10;0.10;;;;;;;;;;5123731;27;20550;-74
2023/10/12 01:08:03;;;;;;;0.80;0.80;;;;;;;;;;5125478;27;20055;-73
2023/10/12 01:10:32;;;;;;;0.55;0.40;;;;;;;;;;5128038;27;20126;-73
2023/10/12 01:13:00;;;;;;;0.20;0.20;;;;;;;;;;5122624;27;20047;-74
2023/10/12 01:15:32;;;;;;;0.30;0.25;;;;;;;;;;5123140;27;20737;-73
2023/10/12 01:17:58;;;;;;;0.40;0.35;;;;;;;;;;5126795;27;20056;-73
2023/10/12 01:20:36;;;;;;;0.85;0.57;;;;;;;;;;5110031;27;20076;-75
2023/10/12 01:23:03;;;;;;;0.40;0.32;;;;;;;;;;5099567;27;20125;-74
2023/10/12 01:25:30;;;;;;;0.20;0.20;;;;;;;;;;5123282;27;20047;-74
2023/10/12 01:28:01;;;;;;;0.10;0.10;;;;;;;;;;5126801;27;20108;-74
2023/10/12 01:30:29;;;;;;;0.60;0.45;;;;;;;;;;5127317;27;20086;-76
2023/10/12 01:32:58;;;;;;;0.22;0.20;;;;;;;;;;5125518;27;20106;-74
2023/10/12 01:35:33;;;;;;;0.20;0.20;;;;;;;;;;5127764;27;20075;-75
2023/10/12 01:38:00;;;;;;;0.10;0.10;;;;;;;;;;5124196;27;20047;-74
2023/10/12 01:40:29;;;;;;;0.55;0.52;;;;;;;;;;5119217;27;20130;-75
2023/10/12 01:43:12;;;;;;;0.10;0.10;;;;;;;;;;5125294;27;20059;-76
2023/10/12 01:45:42;;;;;;;0.43;0.35;;;;;;;;;;5127703;27;20127;-74
2023/10/12 01:48:12;;;;;;;;;;;;;;;;;;5124889;27;20429;-74
2023/10/12 01:50:39;;;;;;;0.30;0.30;;;;;;;;;;5122416;27;47444;-74
2023/10/12 01:53:11;;;;;;;0.10;0.10;;;;;;;;;;5114101;27;20109;-74
2023/10/12 01:55:37;;;;;;;0.63;0.45;;;;;;;;;;5103984;27;20589;-77
2023/10/12 01:58:05;;;;;;;0.10;0.10;;;;;;;;;;5127257;27;20051;-74
2023/10/12 02:00:51;;;;;;;0.30;0.30;;;;;;;;;;5126452;27;20109;-77
2023/10/12 02:03:26;;;;;;;0.20;0.20;;;;;;;;;;5105348;27;20054;-76
2023/10/12 02:05:59;;;;;;;0.20;0.20;;;;;;;;;;5127099;27;20105;-74
2023/10/12 02:14:01;;;;;;;0.65;0.50;;;;;;;;;;5101139;27;20048;-74
2023/10/12 02:16:31;;;;;;;0.10;0.10;;;;;;;;;;5122607;27;20051;-76
2023/10/12 02:18:58;;;;;;;0.20;0.20;;;;;;;;;;5116667;27;20058;-76
2023/10/12 02:21:26;;;;;;;1.10;0.30;;;;;;;;;;5126374;27;20449;-75
2023/10/12 02:31:39;;;;;;;0.15;0.15;;;;;;;;;;5123733;27;20180;-76
2023/10/12 02:34:06;;;;;;;;;;;;;;;;;;5125104;27;20447;-74
2023/10/12 02:36:32;;;;;;;0.22;0.22;;;;;;;;;;5122942;27;46703;-74
2023/10/12 02:39:00;;;;;;;0.10;0.10;;;;;;;;;;5125625;27;20056;-74
2023/10/12 02:41:26;;;;;;;0.52;0.32;;;;;;;;;;5124616;27;20143;-74
2023/10/12 02:44:11;;;;;;;0.10;0.10;;;;;;;;;;5101411;27;20048;-74
2023/10/12 02:46:42;;;;;;;0.10;0.10;;;;;;;;;;5121913;27;20087;-74
2023/10/12 02:49:08;;;;;;;;;;;;;;;;;;5127546;27;20074;-74
2023/10/12 02:51:37;;;;;;;0.10;0.10;;;;;;;;;;5107856;27;46397;-74
2023/10/12 02:54:04;;;;;;;0.15;0.15;;;;;;;;;;5120931;27;20147;-74
2023/10/12 02:56:31;;;;;;;0.10;0.10;;;;;;;;;;5128787;27;20062;-73
2023/10/12 02:59:08;;;;;;;0.30;0.30;;;;;;;;;;5110140;27;20067;-74
2023/10/12 03:01:38;;;;;;;2.38;2.10;;;;;;;;;;5128538;27;20048;-76
2023/10/12 03:04:05;;;;;;;;;;;;;;;;;;5109486;27;20513;-76
2023/10/12 03:06:42;;;;;;;0.10;0.10;;;;;;;;;;5129740;27;44813;-74
2023/10/12 03:11:35;;;;;;;0.35;0.32;;;;;;;;;;5126981;27;20055;-74
2023/10/12 03:14:15;;;;;;;0.10;0.10;;;;;;;;;;5110314;27;20080;-74
2023/10/12 03:16:43;;;;;;;0.10;0.10;;;;;;;;;;5109276;27;20513;-74
2023/10/12 03:19:28;;;;;;;1.35;0.65;;;;;;;;;;5126998;27;22412;-74
2023/10/12 03:22:03;;;;;;;0.10;0.10;;;;;;;;;;5130876;27;20132;-74
2023/10/12 03:24:44;;;;;;;0.10;0.10;;;;;;;;;;5125551;27;20467;-75
2023/10/12 03:27:13;;;;;;;0.10;0.10;;;;;;;;;;5125368;27;20059;-74
2023/10/12 03:29:43;;;;;;;0.10;0.10;;;;;;;;;;5129893;27;20048;-73
2023/10/12 03:32:16;;;;;;;0.10;0.10;;;;;;;;;;5129541;27;20052;-74
2023/10/12 03:37:14;;;;;;;0.40;0.38;;;;;;;;;;5129873;27;20586;-74
2023/10/12 03:45:07;;;;;;;0.10;0.10;;;;;;;;;;5124834;27;20076;-75
2023/10/12 03:47:55;;;;;;;0.10;0.10;;;;;;;;;;5128789;27;20124;-74
2023/10/12 03:50:21;;;;;;;0.10;0.10;;;;;;;;;;5127518;27;20055;-74
2023/10/12 03:52:52;;;;;;;0.10;0.10;;;;;;;;;;5125156;27;20052;-75
2023/10/12 03:55:28;;;;;;;0.10;0.10;;;;;;;;;;5108812;27;20055;-74
2023/10/12 03:58:06;;;;;;;0.10;0.10;;;;;;;;;;5107752;27;20056;-73
2023/10/12 04:00:40;;;;;;;0.10;0.10;;;;;;;;;;5126398;27;20050;-74
2023/10/12 04:03:18;;;;;;;0.10;0.10;;;;;;;;;;5122306;27;20102;-74
2023/10/12 04:18:42;;;;;;;0.10;0.10;;;;;;;;;;5126914;27;20052;-74
2023/10/12 04:21:22;;;;;;;0.10;0.10;;;;;;;;;;5121153;27;20048;-74
2023/10/12 04:26:38;;;;;;;0.55;0.45;;;;;;;;;;5104180;27;20086;-74
2023/10/12 04:29:21;;;;;;;0.10;0.10;;;;;;;;;;5129590;27;20509;-74
2023/10/12 04:31:56;;;;;;;0.10;0.10;;;;;;;;;;5125941;27;20433;-73
2023/10/12 04:34:29;;;;;;;0.10;0.10;;;;;;;;;;5121595;27;20157;-75
2023/10/12 04:37:09;;;;;;;0.10;0.10;;;;;;;;;;5127299;27;20097;-74
2023/10/12 04:39:42;;;;;;;0.15;0.15;;;;;;;;;;5129365;27;20063;-74
2023/10/12 04:42:24;;;;;;;0.10;0.10;;;;;;;;;;5124149;27;20513;-74
2023/10/12 04:45:03;;;;;;;;;;;;;;;;;;5124244;27;20047;-74
2023/10/12 04:47:30;;;;;;;0.10;0.10;;;;;;;;;;5127081;27;46586;-74
2023/10/12 04:49:57;;;;;;;0.20;0.20;;;;;;;;;;5125684;27;20054;-75
2023/10/12 04:52:33;;;;;;;0.30;0.30;;;;;;;;;;5128987;27;20504;-75
2023/10/12 04:55:07;;;;;;;0.35;0.35;;;;;;;;;;5125101;27;20048;-74
2023/10/12 04:57:34;;;;;;;0.10;0.10;;;;;;;;;;5130689;27;20048;-74
2023/10/12 05:00:12;;;;;;;0.10;0.10;;;;;;;;;;5128821;27;20051;-75
2023/10/12 05:07:59;;;;;;;0.10;0.10;;;;;;;;;;5127906;27;20478;-74
2023/10/12 05:10:28;;;;;;;0.10;0.10;;;;;;;;;;5112979;27;20181;-74
2023/10/12 05:13:03;;;;;;;0.10;0.10;;;;;;;;;;5121948;27;20051;-75
2023/10/12 05:15:39;;;;;;;0.10;0.10;;;;;;;;;;5118692;27;20075;-74
2023/10/12 05:18:10;;;;;;;0.10;0.10;;;;;;;;;;5109520;27;20249;-74
2023/10/12 05:20:40;;;;;;;0.20;0.20;;;;;;;;;;5126038;27;20063;-74
2023/10/12 05:23:07;;;;;;;0.30;0.30;;;;;;;;;;5107116;27;20558;-75
2023/10/12 05:28:29;;;;;;;0.10;0.10;;;;;;;;;;5125040;27;20062;-74
2023/10/12 05:31:09;;;;;;;0.10;0.10;;;;;;;;;;5108153;27;20052;-75
2023/10/12 05:36:10;;;;;;;0.10;0.10;;;;;;;;;;5129400;27;20086;-74
2023/10/12 05:38:40;;;;;;;0.10;0.10;;;;;;;;;;5119260;27;20093;-74
2023/10/12 05:41:10;;;;;;;0.52;0.52;;;;;;;;;;5117062;27;20055;-73
2023/10/12 05:43:40;;;;;;;0.20;0.20;;;;;;;;;;5121584;27;20131;-75
2023/10/12 05:46:13;;;;;;;0.10;0.10;;;;;;;;;;5126125;27;20247;-75
2023/10/12 05:48:45;;;;;;;0.10;0.10;;;;;;;;;;5127206;27;20052;-77
2023/10/12 05:51:12;;;;;;;0.10;0.10;;;;;;;;;;5128138;27;20452;-74
2023/10/12 05:53:39;;;;;;;0.10;0.10;;;;;;;;;;5105951;27;20055;-76
2023/10/12 05:56:06;;;;;;;0.10;0.10;;;;;;;;;;5127897;27;20062;-74
2023/10/12 05:58:34;;;;;;;0.10;0.10;;;;;;;;;;5122935;27;20441;-74
2023/10/12 06:01:08;;;;;;;0.10;0.10;;;;;;;;;;5126103;27;20055;-75
2023/10/12 06:03:46;;;;;;;0.10;0.10;;;;;;;;;;5119610;27;20052;-75
2023/10/12 06:06:13;;;;;;;0.10;0.10;;;;;;;;;;5127655;27;20058;-74
2023/10/12 06:08:40;;;;;;;0.10;0.10;;;;;;;;;;5127806;27;20059;-74
2023/10/12 06:11:10;;;;;;;0.10;0.10;;;;;;;;;;5124043;27;20143;-74
2023/10/12 06:13:43;;;;;;;0.10;0.10;;;;;;;;;;5121407;27;20051;-75
2023/10/12 06:16:14;;;;;;;0.10;0.10;;;;;;;;;;5126622;27;20574;-74
2023/10/12 06:18:44;;;;;;;0.10;0.10;;;;;;;;;;5124006;27;20054;-77
2023/10/12 06:21:17;;;;;;;0.10;0.10;;;;;;;;;;5125967;27;20453;-75
2023/10/12 06:23:44;;;;;;;0.10;0.10;;;;;;;;;;5107892;27;20047;-74
2023/10/12 06:26:17;;;;;;;0.10;0.10;;;;;;;;;;5108524;27;20075;-77
2023/10/12 06:28:44;;;;;;;0.10;0.10;;;;;;;;;;5117092;27;20052;-74
2023/10/12 06:31:10;;;;;;;0.10;0.10;;;;;;;;;;5124000;27;20805;-74
2023/10/12 06:33:41;;;;;;;0.10;0.10;;;;;;;;;;5126125;27;20584;-76
2023/10/12 06:36:16;;;;;;;0.10;0.10;;;;;;;;;;5110560;27;20060;-75
2023/10/12 06:46:46;;;;;;;0.10;0.10;;;;;;;;;;5133405;27;20051;-76
2023/10/12 06:49:22;;;;;;;0.10;0.10;;;;;;;;;;5130637;27;20051;-76
2023/10/12 06:52:01;;;;;;;0.30;0.30;;;;;;;;;;5139462;27;20059;-76
2023/10/12 06:54:32;;;;;;;0.10;0.10;;;;;;;;;;5139293;27;20087;-77
2023/10/12 06:59:59;;;;;;;0.10;0.10;;;;;;;;;;5134238;27;20051;-76
2023/10/12 07:02:29;;;;;;;0.10;0.10;;;;;;;;;;5132125;27;20104;-76
2023/10/12 07:04:56;;;;;;;0.10;0.10;;;;;;;;;;5133053;27;20696;-76
2023/10/12 07:07:27;;;;;;;0.10;0.10;;;;;;;;;;5135575;27;20513;-76
2023/10/12 07:09:54;;;;;;;0.10;0.10;;;;;;;;;;5135823;27;20047;-76
2023/10/12 07:12:23;;;;;;;0.10;0.10;;;;;;;;;;5132241;27;20139;-74
2023/10/12 07:14:54;;;;;;;0.10;0.10;;;;;;;;;;5129967;27;20144;-75
2023/10/12 07:17:31;;;;;;;;;;;;;;;;;;5131823;27;20051;-76
2023/10/12 07:19:58;;;;;;;0.10;0.10;;;;;;;;;;5111485;27;48359;-72
2023/10/12 07:22:25;;;;;;;0.10;0.10;;;;;;;;;;5141952;27;20062;-75
2023/10/12 07:24:56;;;;;;;0.10;0.10;;;;;;;;;;5130715;27;20674;-76
2023/10/12 07:27:24;;;;;;;0.10;0.10;;;;;;;;;;5130266;27;20521;-74
2023/10/12 07:30:22;;;;;;;0.10;0.10;;;;;;;;;;5138511;27;20134;-76
2023/10/12 07:32:54;;;;;;;0.10;0.10;;;;;;;;;;5129950;27;20097;-76
2023/10/12 07:35:41;;;;;;;0.10;0.10;;;;;;;;;;5135926;27;20055;-77
2023/10/12 07:38:34;;;;;;;0.10;0.10;;;;;;;;;;5125417;27;20059;-77
2023/10/12 07:41:00;;;;;;;0.10;0.10;;;;;;;;;;5133369;27;20047;-76
2023/10/12 07:43:31;;;;;;;0.10;0.10;;;;;;;;;;5128978;27;20055;-76
2023/10/12 07:46:10;;;;;;;0.10;0.10;;;;;;;;;;5135831;27;20535;-77
2023/10/12 07:48:41;;;;;;;0.10;0.10;;;;;;;;;;5130955;27;20048;-76
2023/10/12 07:51:54;;;;;;;0.10;0.10;;;;;;;;;;5131846;27;20100;-77
2023/10/12 07:54:01;;;;;;;0.15;0.15;;;;;;;;;;5134196;27;20108;-74
2023/10/12 07:56:31;;;;;;;0.22;0.17;;;;;;;;;;5132127;27;20062;-74
2023/10/12 07:58:58;;;;;;;0.10;0.10;;;;;;;;;;5127712;27;20138;-76
2023/10/12 08:03:52;;;;;;;0.10;0.10;;;;;;;;;;5134125;27;20046;-74
2023/10/12 08:06:36;;;;;;;0.10;0.10;;;;;;;;;;5138311;27;20059;-77
2023/10/12 08:11:48;;;;;;;0.10;0.10;;;;;;;;;;5132739;27;20515;-77
2023/10/12 08:19:45;;;;;;;0.10;0.10;;;;;;;;;;5135856;27;20062;-77
2023/10/12 08:22:25;;;;;;;0.10;0.10;;;;;;;;;;5120588;27;20051;-77
2023/10/12 08:24:56;;;;;;;0.10;0.10;;;;;;;;;;5133873;27;20524;-74
2023/10/12 08:27:23;;;;;;;0.10;0.10;;;;;;;;;;5139746;27;22964;-76
2023/10/12 08:37:35;;;;;;;0.10;0.10;;;;;;;;;;5132844;27;20964;-76
2023/10/12 08:40:18;;;;;;;0.30;0.30;;;;;;;;;;5112549;27;20504;-77
2023/10/12 08:42:58;;;;;;;0.10;0.10;;;;;;;;;;5131720;27;20051;-77
2023/10/12 08:45:28;;;;;;;0.10;0.10;;;;;;;;;;5134582;27;20055;-75
2023/10/12 08:48:01;;;;;;;0.10;0.10;;;;;;;;;;5136048;27;20055;-75
2023/10/12 08:53:18;;;;;;;0.10;0.10;;;;;;;;;;5136122;27;20052;-76
2023/10/12 08:55:47;;;;;;;0.10;0.10;;;;;;;;;;5142788;27;20106;-76
2023/10/12 08:58:20;;;;;;;0.10;0.10;;;;;;;;;;5136890;27;20142;-76
2023/10/12 09:03:29;;;;;;;0.10;0.10;;;;;;;;;;5129704;27;20087;-77
2023/10/12 09:05:58;;;;;;;0.10;0.10;;;;;;;;;;5130635;27;20504;-77
2023/10/12 09:11:13;;;;;;;0.10;0.10;;;;;;;;;;5130622;27;20048;-77
2023/10/12 09:13:47;;;;;;;0.10;0.10;;;;;;;;;;5124990;27;20056;-77
2023/10/12 09:16:15;;;;;;;0.10;0.10;;;;;;;;;;5123998;27;20765;-76
2023/10/12 09:18:44;;;;;;;0.57;0.35;;;;;;;;;;5132420;27;20056;-76
2023/10/12 09:21:23;;;;;;;0.10;0.10;;;;;;;;;;5109252;27;20052;-75
2023/10/12 09:23:54;;;;;;;0.10;0.10;;;;;;;;;;5127394;27;20056;-74
2023/10/12 09:26:31;;;;;;;0.20;0.20;;;;;;;;;;5127031;27;20051;-75
2023/10/12 09:29:20;;;;;;;0.10;0.10;;;;;;;;;;5133440;27;20056;-75
2023/10/12 09:34:47;;;;;;;0.10;0.10;;;;;;;;;;5125785;27;20729;-77
2023/10/12 09:37:17;;;;;;;0.10;0.10;;;;;;;;;;5129363;27;20818;-75
2023/10/12 09:39:46;;;;;;;0.10;0.10;;;;;;;;;;5132465;27;20052;-77
2023/10/12 09:42:24;;;;;;;0.32;0.32;;;;;;;;;;5113924;27;20062;-77
2023/10/12 09:44:52;;;;;;;0.30;0.30;;;;;;;;;;5125980;27;20052;-76
2023/10/12 09:47:25;;;;;;;0.10;0.10;;;;;;;;;;5130440;27;20536;-77
2023/10/12 09:49:57;;;;;;;0.10;0.10;;;;;;;;;;5126762;27;20056;-77
2023/10/12 09:52:25;;;;;;;0.10;0.10;;;;;;;;;;5137436;27;20121;-77
2023/10/12 09:54:55;;;;;;;0.10;0.10;;;;;;;;;;5125185;27;20061;-74
2023/10/12 09:57:23;;;;;;;0.10;0.10;;;;;;;;;;5141949;27;20047;-77
2023/10/12 09:59:52;;;;;;;0.10;0.10;;;;;;;;;;5129648;27;20063;-76
2023/10/12 10:02:30;;;;;;;0.10;0.10;;;;;;;;;;5132171;27;20047;-77
2023/10/12 10:05:11;;;;;;;0.10;0.10;;;;;;;;;;5139900;27;20048;-77
2023/10/12 10:07:42;;;;;;;0.45;0.17;;;;;;;;;;5138614;27;21199;-77
2023/10/12 10:10:27;;;;;;;0.10;0.10;;;;;;;;;;5136740;27;20056;-77
2023/10/12 10:12:53;;;;;;;0.10;0.10;;;;;;;;;;5135243;27;20657;-77
2023/10/12 10:15:20;;;;;;;0.10;0.10;;;;;;;;;;5141283;27;22203;-77
2023/10/12 10:17:53;;;;;;;0.10;0.10;;;;;;;;;;5143084;27;20185;-75
2023/10/12 10:22:58;;;;;;;0.10;0.10;;;;;;;;;;5134228;27;20500;-76
2023/10/12 10:25:47;;;;;;;0.10;0.10;;;;;;;;;;5133474;27;20698;-77
2023/10/12 10:28:18;;;;;;;0.10;0.10;;;;;;;;;;5145154;27;20138;-76
2023/10/12 10:30:52;;;;;;;11.60;0.68;;;;;;;;;;5136623;27;20075;-76
2023/10/12 10:33:22;;;;;;;0.10;0.10;;;;;;;;;;5137527;27;20062;-75
2023/10/12 10:36:16;;;;;;;0.10;0.10;;;;;;;;;;5134900;27;20401;-76
2023/10/12 10:39:04;;;;;;;0.20;0.20;;;;;;;;;;5144166;27;20058;-76
2023/10/12 10:44:16;;;;;;;0.10;0.10;;;;;;;;;;5136561;27;20087;-77
2023/10/12 10:46:44;;;;;;;0.10;0.10;;;;;;;;;;5132605;27;20167;-77
2023/10/12 10:49:15;;;;;;;0.10;0.10;;;;;;;;;;5133688;27;20081;-76
2023/10/12 10:54:37;;;;;;;0.10;0.10;;;;;;;;;;5133651;27;20055;-76
2023/10/12 10:57:15;;;;;;;0.13;0.13;;;;;;;;;;5132969;27;20132;-77
2023/10/12 10:59:45;;;;;;;0.10;0.10;;;;;;;;;;5121570;27;20055;-76
2023/10/12 11:02:14;;;;;;;0.10;0.10;;;;;;;;;;5141180;27;20054;-76
2023/10/12 11:04:44;;;;;;;0.20;0.20;;;;;;;;;;5142170;27;20059;-77
2023/10/12 11:07:12;;;;;;;0.10;0.10;;;;;;;;;;5137573;27;20051;-77
2023/10/12 11:12:20;;;;;;;0.20;0.20;;;;;;;;;;5133546;27;20677;-77
2023/10/12 11:17:40;;;;;;;0.10;0.10;;;;;;;;;;5143813;27;20047;-77
2023/10/12 11:20:27;;;;;;;0.10;0.10;;;;;;;;;;5139299;27;20059;-77
2023/10/12 11:22:57;;;;;;;0.40;0.17;;;;;;;;;;5119980;27;20050;-77
2023/10/12 11:25:26;;;;;;;0.10;0.10;;;;;;;;;;5132494;27;20047;-77
2023/10/12 11:27:53;;;;;;;0.10;0.10;;;;;;;;;;5133826;27;20047;-77
2023/10/12 11:30:29;;;;;;;0.10;0.10;;;;;;;;;;5133338;27;20093;-77
2023/10/12 11:32:58;;;;;;;0.10;0.10;;;;;;;;;;5140809;27;20460;-77
2023/10/12 11:35:32;;;;;;;0.47;0.47;;;;;;;;;;5138015;27;20051;-78
2023/10/12 11:37:59;;;;;;;0.10;0.10;;;;;;;;;;5134038;27;20047;-76
2023/10/12 11:40:26;;;;;;;0.20;0.20;;;;;;;;;;5132249;27;20048;-78
2023/10/12 11:42:53;;;;;;;0.10;0.10;;;;;;;;;;5133343;27;20058;-77
2023/10/12 11:45:19;;;;;;;0.30;0.28;;;;;;;;;;5136038;27;20047;-77
2023/10/12 11:47:46;;;;;;;0.10;0.10;;;;;;;;;;5144074;27;20136;-78
2023/10/12 11:50:13;;;;;;;0.10;0.10;;;;;;;;;;5146066;27;20047;-78
2023/10/12 11:52:40;;;;;;;0.10;0.10;;;;;;;;;;5130782;27;20060;-78
2023/10/12 11:55:19;;;;;;;0.10;0.10;;;;;;;;;;5133073;27;20068;-78
2023/10/12 11:57:48;;;;;;;0.75;0.57;;;;;;;;;;5145759;27;20489;-78
2023/10/12 12:00:22;;;;;;;0.10;0.10;;;;;;;;;;5141408;27;20078;-77
2023/10/12 12:02:52;;;;;;;0.10;0.10;;;;;;;;;;5133997;27;20150;-78
2023/10/12 12:05:21;;;;;;;0.10;0.10;;;;;;;;;;5139993;27;20046;-77
2023/10/12 12:07:51;;;;;;;0.10;0.10;;;;;;;;;;5136134;27;20070;-77
2023/10/12 12:10:25;;;;;;;0.10;0.10;;;;;;;;;;5138351;27;20517;-78
2023/10/12 12:12:52;;;;;;;0.10;0.10;;;;;;;;;;5136281;27;20066;-76
2023/10/12 12:15:19;;;;;;;0.10;0.10;;;;;;;;;;5131090;27;20798;-78
2023/10/12 12:17:46;;;;;;;0.10;0.10;;;;;;;;;;5139775;27;20092;-76
2023/10/12 12:20:21;;;;;;;2.33;0.40;;;;;;;;;;5123031;27;20051;-77
2023/10/12 12:22:47;;;;;;;0.10;0.10;;;;;;;;;;5137058;27;20554;-76
2023/10/12 12:25:21;;;;;;;0.10;0.10;;;;;;;;;;5129210;27;20044;-77
2023/10/12 12:27:55;;;;;;;0.10;0.10;;;;;;;;;;5139440;27;20055;-77
2023/10/12 12:30:33;;;;;;;0.10;0.10;;;;;;;;;;5133753;27;20398;-76
2023/10/12 12:33:03;;;;;;;0.10;0.10;;;;;;;;;;5110055;27;20163;-77
2023/10/12 12:35:30;;;;;;;0.25;0.25;;;;;;;;;;5128458;27;20446;-75
2023/10/12 12:38:00;;;;;;;2.08;0.85;;;;;;;;;;5138504;27;20054;-77
2023/10/12 12:40:30;;;;;;;0.10;0.10;;;;;;;;;;5119651;27;20104;-77
2023/10/12 12:42:57;;;;;;;0.10;0.10;;;;;;;;;;5133855;27;20498;-77
2023/10/12 12:45:24;;;;;;;0.10;0.10;;;;;;;;;;5121147;27;20052;-76
2023/10/12 12:47:50;;;;;;;0.10;0.10;;;;;;;;;;5127708;27;20065;-77
2023/10/12 12:50:17;;;;;;;0.10;0.10;;;;;;;;;;5138259;27;20784;-77
2023/10/12 12:52:43;;;;;;;0.10;0.10;;;;;;;;;;5113856;27;20573;-77
2023/10/12 12:55:10;;;;;;;0.20;0.20;;;;;;;;;;5118167;27;20143;-77
2023/10/12 12:57:42;;;;;;;0.10;0.10;;;;;;;;;;5125905;27;20053;-78
2023/10/12 13:00:09;;;;;;;0.10;0.10;;;;;;;;;;5141580;27;20055;-77
2023/10/12 13:02:39;;;;;;;0.10;0.10;;;;;;;;;;5138440;27;20406;-78
2023/10/12 13:05:07;;;;;;;0.22;0.22;;;;;;;;;;5129566;27;20059;-78
2023/10/12 13:07:34;;;;;;;0.10;0.10;;;;;;;;;;5141970;27;20497;-80
2023/10/12 13:10:00;;;;;;;0.10;0.10;;;;;;;;;;5122691;27;20137;-78
2023/10/12 13:12:31;;;;;;;0.10;0.10;;;;;;;;;;5133854;27;20170;-78
2023/10/12 13:15:00;;;;;;;0.10;0.10;;;;;;;;;;5111520;27;20123;-78
2023/10/12 13:17:30;;;;;;;0.10;0.10;;;;;;;;;;5134505;27;20063;-77
2023/10/12 13:19:59;;;;;;;0.30;0.30;;;;;;;;;;5137034;27;20047;-78
2023/10/12 13:22:26;;;;;;;0.10;0.10;;;;;;;;;;5140430;27;20489;-81
2023/10/12 13:24:58;;;;;;;0.15;0.15;;;;;;;;;;5140460;27;20911;-78
2023/10/12 13:27:27;;;;;;;0.10;0.10;;;;;;;;;;5119958;27;20051;-78
2023/10/12 13:30:00;;;;;;;0.10;0.10;;;;;;;;;;5112476;27;20062;-79
2023/10/12 13:32:27;;;;;;;0.20;0.20;;;;;;;;;;5134285;27;20130;-80
2023/10/12 13:34:58;;;;;;;0.40;0.40;;;;;;;;;;5129052;27;20473;-79
2023/10/12 13:37:24;;;;;;;;;;;;;;;;;;5132287;27;20059;-79
2023/10/12 13:39:54;;;;;;;0.20;0.20;;;;;;;;;;5138578;27;45048;-81
2023/10/12 13:42:21;;;;;;;0.10;0.10;;;;;;;;;;5135355;27;20497;-80
2023/10/12 13:44:49;;;;;;;0.10;0.10;;;;;;;;;;5135703;27;20055;-79
2023/10/12 13:47:16;;;;;;;0.52;0.40;;;;;;;;;;5139231;27;20051;-79
2023/10/12 13:49:42;;;;;;;0.17;0.17;;;;;;;;;;5117469;27;20121;-79
2023/10/12 13:52:12;;;;;;;0.10;0.10;;;;;;;;;;5130867;27;20043;-79
2023/10/12 13:54:45;;;;;;;0.10;0.10;;;;;;;;;;5139555;27;20108;-79
2023/10/12 13:57:14;;;;;;;0.17;0.17;;;;;;;;;;5138580;27;20541;-80
2023/10/12 13:59:45;;;;;;;0.30;0.30;;;;;;;;;;5136008;27;20055;-79
2023/10/12 14:02:12;;;;;;;0.40;0.40;;;;;;;;;;5138412;27;20142;-79
2023/10/12 14:04:40;;;;;;;0.22;0.17;;;;;;;;;;5135716;27;20571;-79
2023/10/12 14:07:07;;;;;;;0.55;0.43;;;;;;;;;;5148183;27;20916;-79
2023/10/12 14:09:33;;;;;;;0.10;0.10;;;;;;;;;;5140688;27;20055;-79
2023/10/12 14:12:00;;;;;;;0.47;0.32;;;;;;;;;;5133827;27;20135;-80
2023/10/12 14:14:27;;;;;;;0.30;0.30;;;;;;;;;;5132751;27;20507;-79
2023/10/12 14:16:53;;;;;;;0.10;0.10;;;;;;;;;;5124316;27;20116;-79
2023/10/12 14:19:23;;;;;;;0.20;0.20;;;;;;;;;;5146149;27;20059;-79
2023/10/12 14:21:53;;;;;;;0.20;0.20;;;;;;;;;;5132257;27;20105;-79
2023/10/12 14:24:27;;;;;;;0.30;0.20;;;;;;;;;;5134716;27;20138;-79
2023/10/12 14:26:58;;;;;;;0.32;0.20;;;;;;;;;;5134263;27;20141;-78
2023/10/12 14:29:25;;;;;;;0.43;0.30;;;;;;;;;;5127153;27;20058;-78
2023/10/12 14:31:52;;;;;;;0.35;0.35;;;;;;;;;;5141367;27;20051;-79
2023/10/12 14:34:18;;;;;;;0.10;0.10;;;;;;;;;;5139485;27;20049;-79
2023/10/12 14:36:45;;;;;;;0.65;0.65;;;;;;;;;;5129586;27;20055;-78
2023/10/12 14:39:23;;;;;;;0.25;0.25;;;;;;;;;;5143762;27;20175;-78
2023/10/12 14:41:50;;;;;;;0.30;0.30;;;;;;;;;;5112406;27;20062;-78
2023/10/12 14:44:17;;;;;;;0.10;0.10;;;;;;;;;;5133073;27;20135;-77
2023/10/12 14:46:45;;;;;;;0.20;0.20;;;;;;;;;;5122459;27;20056;-78
2023/10/12 14:49:14;;;;;;;0.52;0.30;;;;;;;;;;5135481;27;20607;-77
2023/10/12 14:51:42;;;;;;;0.20;0.20;;;;;;;;;;5129782;27;20051;-78
2023/10/12 14:54:08;;;;;;;0.28;0.28;;;;;;;;;;5112951;27;20576;-78
2023/10/12 14:56:38;;;;;;;0.20;0.20;;;;;;;;;;5144649;27;20059;-78
2023/10/12 14:59:04;;;;;;;1.08;0.30;;;;;;;;;;5138662;27;22342;-78
2023/10/12 15:01:32;;;;;;;0.20;0.20;;;;;;;;;;5140288;27;20150;-77
2023/10/12 15:03:59;;;;;;;0.10;0.10;;;;;;;;;;5142988;27;20048;-77
2023/10/12 15:06:30;;;;;;;0.10;0.10;;;;;;;;;;5154590;27;20051;-77
2023/10/12 15:08:57;;;;;;;0.10;0.10;;;;;;;;;;5133453;27;20120;-77
2023/10/12 15:11:25;;;;;;;0.10;0.10;;;;;;;;;;5134171;27;20068;-77
2023/10/12 15:13:53;;;;;;;0.28;0.28;;;;;;;;;;5138573;27;20139;-77
2023/10/12 15:16:21;;;;;;;0.20;0.20;;;;;;;;;;5132061;27;20138;-78
2023/10/12 15:18:48;;;;;;;0.70;0.70;;;;;;;;;;5132766;27;20096;-78
2023/10/12 15:21:15;;;;;;;0.30;0.30;;;;;;;;;;5128477;27;20578;-77
2023/10/12 15:23:44;;;;;;;0.20;0.20;;;;;;;;;;5143114;27;20517;-78
2023/10/12 15:26:12;;;;;;;0.10;0.10;;;;;;;;;;5136389;27;20372;-78
2023/10/12 15:28:38;;;;;;;0.10;0.10;;;;;;;;;;5136387;27;20410;-77
2023/10/12 15:31:06;;;;;;;1.75;0.75;;;;;;;;;;5122711;27;20047;-77
2023/10/12 15:33:33;;;;;;;0.20;0.20;;;;;;;;;;5124136;27;20549;-77
2023/10/12 15:35:59;;;;;;;0.32;0.30;;;;;;;;;;5142128;27;20058;-77
2023/10/12 15:38:29;;;;;;;1.13;0.52;;;;;;;;;;5118261;27;20141;-77
2023/10/12 15:40:56;;;;;;;0.30;0.30;;;;;;;;;;5130184;27;20059;-78
2023/10/12 15:43:23;;;;;;;0.10;0.10;;;;;;;;;;5141800;27;20741;-78
2023/10/12 15:45:50;;;;;;;0.30;0.30;;;;;;;;;;5114508;27;20375;-78
2023/10/12 15:48:18;;;;;;;0.20;0.20;;;;;;;;;;5115937;27;20359;-78
2023/10/12 15:50:45;;;;;;;0.10;0.10;;;;;;;;;;5129812;27;20058;-77
2023/10/12 15:53:11;;;;;;;0.10;0.10;;;;;;;;;;5135935;27;20051;-77
2023/10/12 15:55:39;;;;;;;0.20;0.20;;;;;;;;;;5137804;27;20062;-77
2023/10/12 15:58:06;;;;;;;0.20;0.20;;;;;;;;;;5131838;27;20047;-77
2023/10/12 16:00:32;;;;;;;0.20;0.20;;;;;;;;;;5146510;27;20051;-78
2023/10/12 16:03:01;;;;;;;0.10;0.10;;;;;;;;;;5112876;27;20062;-78
2023/10/12 16:05:28;;;;;;;0.30;0.30;;;;;;;;;;5111758;27;20176;-78
2023/10/12 16:07:56;;;;;;;0.47;0.47;;;;;;;;;;5136134;27;20056;-78
2023/10/12 16:10:23;;;;;;;0.35;0.35;;;;;;;;;;5138241;27;20099;-78
2023/10/12 16:12:50;;;;;;;0.10;0.10;;;;;;;;;;5140635;27;20928;-78
2023/10/12 16:15:17;;;;;;;0.10;0.10;;;;;;;;;;5121062;27;20055;-77
2023/10/12 16:17:48;;;;;;;0.28;0.25;;;;;;;;;;5112542;27;20052;-78
2023/10/12 16:20:15;;;;;;;0.40;0.30;;;;;;;;;;5147427;27;20051;-77
2023/10/12 16:22:43;;;;;;;0.77;0.50;;;;;;;;;;5136849;27;20152;-78
2023/10/12 16:25:13;;;;;;;0.10;0.10;;;;;;;;;;5114696;27;20039;-77
2023/10/12 16:27:40;;;;;;;0.20;0.20;;;;;;;;;;5114065;27;20139;-77
2023/10/12 16:30:14;;;;;;;0.10;0.10;;;;;;;;;;5135717;27;20512;-77
2023/10/12 16:32:48;;;;;;;0.20;0.20;;;;;;;;;;5114636;27;20142;-77
2023/10/12 16:35:23;;;;;;;0.40;0.30;;;;;;;;;;5139938;27;20055;-79
2023/10/12 16:37:50;;;;;;;0.10;0.10;;;;;;;;;;5141860;27;20059;-77
2023/10/12 16:40:17;;;;;;;5.28;0.90;;;;;;;;;;5130637;27;20120;-77
2023/10/12 16:42:43;;;;;;;0.65;0.40;;;;;;;;;;5147866;27;20078;-79
2023/10/12 16:45:11;;;;;;;0.10;0.10;;;;;;;;;;5137360;27;20545;-76
2023/10/12 16:47:38;;;;;;;0.35;0.30;;;;;;;;;;5134120;27;20087;-79
2023/10/12 16:50:05;;;;;;;0.20;0.20;;;;;;;;;;5143959;27;20047;-78
2023/10/12 16:52:32;;;;;;;0.10;0.10;;;;;;;;;;5141967;27;20403;-77
2023/10/12 16:54:59;;;;;;;0.20;0.20;;;;;;;;;;5132222;27;20131;-77